createdAt,value
2022-08-01T00:02:28.533Z,16.38
2022-08-01T00:05:01.102Z,16.39
2022-08-01T00:07:32.745Z,16.39
2022-08-01T00:10:04.601Z,16.36
2022-08-01T00:12:36.273Z,16.32
2022-08-01T00:15:12.241Z,16.27
2022-08-01T00:17:44.926Z,16.23
2022-08-01T00:20:17.746Z,16.21
2022-08-01T00:22:49.258Z,16.20
2022-08-01T00:25:20.733Z,16.20
2022-08-01T00:28:09.477Z,16.18
2022-08-01T00:30:41.034Z,16.16
2022-08-01T00:33:12.588Z,16.16
2022-08-01T00:35:44.191Z,16.18
2022-08-01T00:38:15.712Z,16.22
2022-08-01T00:40:47.275Z,16.22
2022-08-01T00:43:18.971Z,16.24
2022-08-01T00:45:50.470Z,16.24
2022-08-01T00:48:22.031Z,16.20
2022-08-01T00:50:53.582Z,16.16
2022-08-01T00:53:25.427Z,16.14
2022-08-01T00:55:58.181Z,16.13
2022-08-01T00:58:33.129Z,16.12
2022-08-01T01:01:04.787Z,16.13
2022-08-01T01:03:58.099Z,16.15
2022-08-01T01:06:38.729Z,16.17
2022-08-01T01:09:27.601Z,16.18
2022-08-01T01:12:11.052Z,16.16
2022-08-01T01:14:47.602Z,16.15
2022-08-01T01:17:50.568Z,16.16
2022-08-01T01:20:17.172Z,16.17
2022-08-01T01:23:00.438Z,16.17
2022-08-01T01:25:53.940Z,16.14
2022-08-01T01:28:35.495Z,16.12
2022-08-01T01:31:10.937Z,16.15
2022-08-01T01:33:47.309Z,16.16
2022-08-01T01:36:21.600Z,16.13
2022-08-01T01:38:55.171Z,16.11
2022-08-01T01:41:27.836Z,16.08
2022-08-01T01:44:02.634Z,16.07
2022-08-01T01:46:35.234Z,16.06
2022-08-01T01:49:07.488Z,16.06
2022-08-01T01:51:41.058Z,16.06
2022-08-01T01:54:13.839Z,16.04
2022-08-01T01:56:50.535Z,16.04
2022-08-01T01:59:26.611Z,16.04
2022-08-01T02:02:05.709Z,16.01
2022-08-01T02:04:41.893Z,16.00
2022-08-01T02:07:15.438Z,15.98
2022-08-01T02:09:48.091Z,15.95
2022-08-01T02:12:22.698Z,15.92
2022-08-01T02:14:57.301Z,15.91
2022-08-01T02:17:30.727Z,15.90
2022-08-01T02:20:02.664Z,15.90
2022-08-01T02:22:38.973Z,15.90
2022-08-01T02:25:18.759Z,15.90
2022-08-01T02:27:58.638Z,15.88
2022-08-01T02:30:34.761Z,15.88
2022-08-01T02:33:15.903Z,15.88
2022-08-01T02:36:31.276Z,15.88
2022-08-01T02:38:46.532Z,15.90
2022-08-01T02:41:25.914Z,15.90
2022-08-01T02:44:06.925Z,15.91
2022-08-01T02:46:42.809Z,15.90
2022-08-01T02:49:16.790Z,15.87
2022-08-01T02:51:50.946Z,15.88
2022-08-01T02:54:25.468Z,15.88
2022-08-01T02:56:58.849Z,15.83
2022-08-01T02:59:31.635Z,15.76
2022-08-01T03:02:06.330Z,15.77
2022-08-01T03:04:42.640Z,15.78
2022-08-01T03:07:15.835Z,15.79
2022-08-01T03:09:49.876Z,15.80
2022-08-01T03:12:26.121Z,15.82
2022-08-01T03:15:00.146Z,15.83
2022-08-01T03:17:32.537Z,15.84
2022-08-01T03:20:09.706Z,15.85
2022-08-01T03:22:42.785Z,15.88
2022-08-01T03:25:17.130Z,15.90
2022-08-01T03:27:53.935Z,15.92
2022-08-01T03:30:27.216Z,15.91
2022-08-01T03:32:59.246Z,15.90
2022-08-01T03:35:38.914Z,15.89
2022-08-01T03:38:16.503Z,15.91
2022-08-01T03:40:53.385Z,15.92
2022-08-01T03:43:29.110Z,15.95
2022-08-01T03:46:08.670Z,15.98
2022-08-01T03:48:42.768Z,15.96
2022-08-01T03:51:16.015Z,15.94
2022-08-01T03:53:50.077Z,15.95
2022-08-01T03:56:23.478Z,15.96
2022-08-01T03:58:55.630Z,15.93
2022-08-01T04:01:27.965Z,15.93
2022-08-01T04:04:02.238Z,15.92
2022-08-01T04:06:34.080Z,15.86
2022-08-01T04:09:08.081Z,15.78
2022-08-01T04:11:43.381Z,15.74
2022-08-01T04:14:15.008Z,15.74
2022-08-01T04:16:46.746Z,15.78
2022-08-01T04:19:20.963Z,15.84
2022-08-01T04:21:52.738Z,15.85
2022-08-01T04:24:26.393Z,15.87
2022-08-01T04:26:59.627Z,15.88
2022-08-01T04:29:32.000Z,15.89
2022-08-01T04:32:04.672Z,15.91
2022-08-01T04:34:37.058Z,15.93
2022-08-01T04:37:09.848Z,15.85
2022-08-01T04:39:50.842Z,15.78
2022-08-01T04:42:25.210Z,15.74
2022-08-01T04:45:03.173Z,15.63
2022-08-01T04:47:36.558Z,15.58
2022-08-01T04:50:10.707Z,15.56
2022-08-01T04:52:43.310Z,15.59
2022-08-01T04:55:14.908Z,15.62
2022-08-01T04:57:48.734Z,15.64
2022-08-01T05:00:20.466Z,15.60
2022-08-01T05:02:51.955Z,15.63
2022-08-01T05:05:23.530Z,15.66
2022-08-01T05:07:55.148Z,15.70
2022-08-01T05:10:27.057Z,15.77
2022-08-01T05:12:58.548Z,15.81
2022-08-01T05:15:30.123Z,15.82
2022-08-01T05:18:01.954Z,15.85
2022-08-01T05:20:33.740Z,15.82
2022-08-01T05:23:05.273Z,15.84
2022-08-01T05:25:57.972Z,15.85
2022-08-01T05:28:26.937Z,15.90
2022-08-01T05:30:58.570Z,15.94
2022-08-01T05:33:30.054Z,16.04
2022-08-01T05:36:01.567Z,16.13
2022-08-01T05:38:33.195Z,16.24
2022-08-01T05:41:04.807Z,16.32
2022-08-01T05:43:36.359Z,16.34
2022-08-01T05:46:08.100Z,16.31
2022-08-01T05:48:39.696Z,16.26
2022-08-01T05:51:11.338Z,16.28
2022-08-01T05:53:42.985Z,16.37
2022-08-01T05:56:14.546Z,16.43
2022-08-01T05:58:46.004Z,16.53
2022-08-01T06:01:17.554Z,16.65
2022-08-01T06:03:49.602Z,16.75
2022-08-01T06:06:21.063Z,16.81
2022-08-01T06:08:57.308Z,16.85
2022-08-01T06:11:28.833Z,16.94
2022-08-01T06:14:00.379Z,17.07
2022-08-01T06:16:31.842Z,17.16
2022-08-01T06:19:03.496Z,17.26
2022-08-01T06:21:35.123Z,17.35
2022-08-01T06:24:07.725Z,17.53
2022-08-01T06:26:39.315Z,17.95
2022-08-01T06:29:10.830Z,18.50
2022-08-01T06:31:43.984Z,19.22
2022-08-01T06:34:16.208Z,20.26
2022-08-01T06:36:47.690Z,21.11
2022-08-01T06:39:19.635Z,22.14
2022-08-01T06:41:51.107Z,23.06
2022-08-01T06:44:22.668Z,23.77
2022-08-01T06:46:54.108Z,24.59
2022-08-01T06:49:25.691Z,25.43
2022-08-01T06:51:57.164Z,25.99
2022-08-01T06:54:29.000Z,26.58
2022-08-01T06:57:00.626Z,26.89
2022-08-01T06:59:32.465Z,26.88
2022-08-01T07:02:04.334Z,26.71
2022-08-01T07:04:36.269Z,26.62
2022-08-01T07:07:08.225Z,26.98
2022-08-01T07:09:42.003Z,27.52
2022-08-01T07:12:13.552Z,27.93
2022-08-01T07:14:45.183Z,28.45
2022-08-01T07:17:16.723Z,28.61
2022-08-01T07:19:48.298Z,28.67
2022-08-01T07:22:23.125Z,28.82
2022-08-01T07:24:55.185Z,29.09
2022-08-01T07:27:26.801Z,29.08
2022-08-01T07:29:58.321Z,29.15
2022-08-01T07:32:30.311Z,29.19
2022-08-01T07:35:01.778Z,28.95
2022-08-01T07:37:46.147Z,28.48
2022-08-01T07:40:21.753Z,28.13
2022-08-01T07:42:53.345Z,27.76
2022-08-01T07:45:27.744Z,27.36
2022-08-01T07:48:03.464Z,26.86
2022-08-01T07:50:39.791Z,26.46
2022-08-01T07:53:11.591Z,26.14
2022-08-01T07:55:43.416Z,25.94
2022-08-01T07:58:17.744Z,25.76
2022-08-01T08:00:49.493Z,25.56
2022-08-01T08:03:20.977Z,25.53
2022-08-01T08:06:00.154Z,25.58
2022-08-01T08:08:32.521Z,25.57
2022-08-01T08:11:04.255Z,25.43
2022-08-01T08:13:35.815Z,25.27
2022-08-01T08:16:07.441Z,25.23
2022-08-01T08:18:39.238Z,25.24
2022-08-01T08:21:10.735Z,25.31
2022-08-01T08:24:00.106Z,25.41
2022-08-01T08:26:31.945Z,25.52
2022-08-01T08:29:03.479Z,25.61
2022-08-01T08:31:51.324Z,25.74
2022-08-01T08:34:24.672Z,25.82
2022-08-01T08:36:57.416Z,25.84
2022-08-01T08:39:32.666Z,25.68
2022-08-01T08:42:14.818Z,25.59
2022-08-01T08:44:46.670Z,25.51
2022-08-01T08:47:20.794Z,25.43
2022-08-01T08:49:54.815Z,25.42
2022-08-01T08:52:27.421Z,25.49
2022-08-01T08:54:59.821Z,25.61
2022-08-01T08:57:32.064Z,25.77
2022-08-01T09:00:04.768Z,25.90
2022-08-01T09:02:36.494Z,25.99
2022-08-01T09:05:14.007Z,25.93
2022-08-01T09:07:49.174Z,25.78
2022-08-01T09:10:20.683Z,25.69
2022-08-01T09:13:11.997Z,25.62
2022-08-01T09:15:46.345Z,25.62
2022-08-01T09:18:32.966Z,25.58
2022-08-01T09:21:17.355Z,25.63
2022-08-01T09:23:53.925Z,25.66
2022-08-01T09:26:32.983Z,25.69
2022-08-01T09:29:37.544Z,25.68
2022-08-01T09:32:13.978Z,25.63
2022-08-01T09:35:30.799Z,25.63
2022-08-01T09:38:17.874Z,25.63
2022-08-01T09:40:51.951Z,25.69
2022-08-01T09:43:25.527Z,25.74
2022-08-01T09:45:59.330Z,25.80
2022-08-01T09:48:32.509Z,25.81
2022-08-01T09:51:09.452Z,25.81
2022-08-01T09:53:51.171Z,25.72
2022-08-01T09:56:25.310Z,25.69
2022-08-01T09:59:02.760Z,25.73
2022-08-01T10:01:47.229Z,25.75
2022-08-01T10:04:25.274Z,25.81
2022-08-01T10:07:07.761Z,25.87
2022-08-01T10:09:41.155Z,25.94
2022-08-01T10:12:15.192Z,25.99
2022-08-01T10:14:50.592Z,26.02
2022-08-01T10:17:26.018Z,26.04
2022-08-01T10:20:30.532Z,26.04
2022-08-01T10:23:06.416Z,25.98
2022-08-01T10:25:46.641Z,25.94
2022-08-01T10:28:24.316Z,25.97
2022-08-01T10:30:56.827Z,26.03
2022-08-01T10:33:50.795Z,26.09
2022-08-01T10:36:25.589Z,26.14
2022-08-01T10:38:58.324Z,26.14
2022-08-01T10:41:30.790Z,26.14
2022-08-01T10:44:03.763Z,26.14
2022-08-01T10:46:36.569Z,26.20
2022-08-01T10:49:12.767Z,26.27
2022-08-01T10:51:51.925Z,26.33
2022-08-01T10:54:28.180Z,26.39
2022-08-01T10:57:03.549Z,26.33
2022-08-01T10:59:50.261Z,26.32
2022-08-01T11:02:33.044Z,26.31
2022-08-01T11:05:14.403Z,26.31
2022-08-01T11:07:50.617Z,26.27
2022-08-01T11:10:28.063Z,26.17
2022-08-01T11:13:02.089Z,26.14
2022-08-01T11:15:36.254Z,26.16
2022-08-01T11:18:37.515Z,26.11
2022-08-01T11:21:58.028Z,26.14
2022-08-01T11:24:01.254Z,26.16
2022-08-01T11:26:32.760Z,26.22
2022-08-01T11:29:22.019Z,26.28
2022-08-01T11:31:54.481Z,26.34
2022-08-01T11:34:56.286Z,26.37
2022-08-01T11:37:30.410Z,26.35
2022-08-01T11:40:24.891Z,26.26
2022-08-01T11:43:21.054Z,26.19
2022-08-01T11:45:53.942Z,26.20
2022-08-01T11:48:28.888Z,26.26
2022-08-01T11:51:02.444Z,26.28
2022-08-01T11:53:34.616Z,26.30
2022-08-01T11:56:09.589Z,26.24
2022-08-01T11:58:41.113Z,26.23
2022-08-01T12:01:16.534Z,26.22
2022-08-01T12:03:48.103Z,26.26
2022-08-01T12:06:30.593Z,26.29
2022-08-01T12:09:24.271Z,26.29
2022-08-01T12:11:55.945Z,26.28
2022-08-01T12:14:27.908Z,26.27
2022-08-01T12:16:59.766Z,26.33
2022-08-01T12:19:31.730Z,26.30
2022-08-01T12:22:14.513Z,26.23
2022-08-01T12:24:46.333Z,26.19
2022-08-01T12:27:28.301Z,26.23
2022-08-01T12:30:00.405Z,26.40
2022-08-01T12:32:36.793Z,26.61
2022-08-01T12:35:11.578Z,26.71
2022-08-01T12:37:46.764Z,26.65
2022-08-01T12:40:22.035Z,26.56
2022-08-01T12:42:55.454Z,26.53
2022-08-01T12:45:29.619Z,26.49
2022-08-01T12:48:01.815Z,26.45
2022-08-01T12:50:35.263Z,26.44
2022-08-01T12:53:07.475Z,26.48
2022-08-01T12:55:57.869Z,26.53
2022-08-01T12:58:35.928Z,26.62
2022-08-01T13:01:09.584Z,26.69
2022-08-01T13:03:41.691Z,26.67
2022-08-01T13:06:17.543Z,26.60
2022-08-01T13:08:49.531Z,26.47
2022-08-01T13:11:21.019Z,26.43
2022-08-01T13:13:54.175Z,26.41
2022-08-01T13:16:43.228Z,26.40
2022-08-01T13:19:19.000Z,26.36
2022-08-01T13:22:00.191Z,26.38
2022-08-01T13:24:32.300Z,26.50
2022-08-01T13:27:05.487Z,26.58
2022-08-01T13:29:39.464Z,26.59
2022-08-01T13:32:30.023Z,26.64
2022-08-01T13:35:09.143Z,26.67
2022-08-01T13:37:42.110Z,26.61
2022-08-01T13:40:24.636Z,26.69
2022-08-01T13:42:57.640Z,26.85
2022-08-01T13:45:29.205Z,26.90
2022-08-01T13:48:03.717Z,26.98
2022-08-01T13:50:44.306Z,27.08
2022-08-01T13:53:16.411Z,27.06
2022-08-01T13:55:47.917Z,27.11
2022-08-01T13:58:19.467Z,27.14
2022-08-01T14:00:51.411Z,27.13
2022-08-01T14:03:23.005Z,27.03
2022-08-01T14:06:05.517Z,26.90
2022-08-01T14:08:37.220Z,26.84
2022-08-01T14:11:09.050Z,26.79
2022-08-01T14:13:46.712Z,26.77
2022-08-01T14:16:22.335Z,26.73
2022-08-01T14:18:55.873Z,26.66
2022-08-01T14:21:27.611Z,26.54
2022-08-01T14:23:59.106Z,26.42
2022-08-01T14:26:30.613Z,26.38
2022-08-01T14:29:02.332Z,26.37
2022-08-01T14:31:34.578Z,26.34
2022-08-01T14:34:06.448Z,26.26
2022-08-01T14:36:39.019Z,26.23
2022-08-01T14:39:14.937Z,26.21
2022-08-01T14:41:47.205Z,26.20
2022-08-01T14:44:21.701Z,26.20
2022-08-01T14:46:58.107Z,26.20
2022-08-01T14:49:32.317Z,26.18
2022-08-01T14:52:04.299Z,26.17
2022-08-01T14:54:36.102Z,26.14
2022-08-01T14:57:07.964Z,26.05
2022-08-01T14:59:39.445Z,25.98
2022-08-01T15:02:12.228Z,25.94
2022-08-01T15:04:44.105Z,25.93
2022-08-01T15:07:16.604Z,25.91
2022-08-01T15:09:49.437Z,25.89
2022-08-01T15:12:21.060Z,25.89
2022-08-01T15:14:52.580Z,25.93
2022-08-01T15:17:26.210Z,25.96
2022-08-01T15:19:59.167Z,25.94
2022-08-01T15:22:31.584Z,25.91
2022-08-01T15:25:04.462Z,25.89
2022-08-01T15:27:35.957Z,25.85
2022-08-01T15:30:10.243Z,25.82
2022-08-01T15:32:41.838Z,25.77
2022-08-01T15:35:13.573Z,25.70
2022-08-01T15:37:45.200Z,25.61
2022-08-01T15:40:16.905Z,25.54
2022-08-01T15:42:49.023Z,25.48
2022-08-01T15:45:47.475Z,25.48
2022-08-01T15:48:13.907Z,25.46
2022-08-01T15:50:45.700Z,25.41
2022-08-01T15:53:17.519Z,25.38
2022-08-01T15:55:52.755Z,25.36
2022-08-01T15:58:24.582Z,25.36
2022-08-01T16:00:56.164Z,25.33
2022-08-01T16:03:28.799Z,25.32
2022-08-01T16:06:00.397Z,25.27
2022-08-01T16:08:32.179Z,25.20
2022-08-01T16:11:03.837Z,25.09
2022-08-01T16:13:35.288Z,25.02
2022-08-01T16:16:08.579Z,24.93
2022-08-01T16:18:40.383Z,24.83
2022-08-01T16:21:12.583Z,24.71
2022-08-01T16:23:45.305Z,24.66
2022-08-01T16:26:25.938Z,24.59
2022-08-01T16:28:59.760Z,24.50
2022-08-01T16:31:37.664Z,24.39
2022-08-01T16:34:23.678Z,24.27
2022-08-01T16:36:55.643Z,24.17
2022-08-01T16:39:27.454Z,24.07
2022-08-01T16:41:59.056Z,24.01
2022-08-01T16:44:34.291Z,23.94
2022-08-01T16:47:09.080Z,23.86
2022-08-01T16:49:41.036Z,23.73
2022-08-01T16:52:12.849Z,23.62
2022-08-01T16:54:44.730Z,23.54
2022-08-01T16:57:16.550Z,23.50
2022-08-01T16:59:48.361Z,23.45
2022-08-01T17:02:20.186Z,23.40
2022-08-01T17:04:51.783Z,23.34
2022-08-01T17:07:23.436Z,23.29
2022-08-01T17:09:55.117Z,23.18
2022-08-01T17:12:26.787Z,23.06
2022-08-01T17:14:58.349Z,22.94
2022-08-01T17:17:30.632Z,22.83
2022-08-01T17:20:02.133Z,22.72
2022-08-01T17:22:33.775Z,22.60
2022-08-01T17:25:06.219Z,22.45
2022-08-01T17:27:51.296Z,22.28
2022-08-01T17:30:23.240Z,22.12
2022-08-01T17:32:54.888Z,22.00
2022-08-01T17:35:26.504Z,21.93
2022-08-01T17:37:58.162Z,21.87
2022-08-01T17:40:45.139Z,21.80
2022-08-01T17:43:18.113Z,21.71
2022-08-01T17:45:51.585Z,21.67
2022-08-01T17:48:23.567Z,21.62
2022-08-01T17:50:55.118Z,21.59
2022-08-01T17:53:26.798Z,21.55
2022-08-01T17:56:00.708Z,21.48
2022-08-01T17:58:49.693Z,21.44
2022-08-01T18:01:26.335Z,21.36
2022-08-01T18:03:59.547Z,21.24
2022-08-01T18:06:31.904Z,21.14
2022-08-01T18:09:09.427Z,21.12
2022-08-01T18:11:42.803Z,21.12
2022-08-01T18:14:14.317Z,21.13
2022-08-01T18:16:46.797Z,21.13
2022-08-01T18:19:20.879Z,21.12
2022-08-01T18:21:53.047Z,21.06
2022-08-01T18:24:25.418Z,20.98
2022-08-01T18:26:58.737Z,20.96
2022-08-01T18:29:46.036Z,20.93
2022-08-01T18:32:19.621Z,20.83
2022-08-01T18:34:51.180Z,20.77
2022-08-01T18:37:22.874Z,20.73
2022-08-01T18:39:58.324Z,20.71
2022-08-01T18:42:30.075Z,20.69
2022-08-01T18:45:01.739Z,20.69
2022-08-01T18:47:33.347Z,20.72
2022-08-01T18:50:05.412Z,20.72
2022-08-01T18:52:36.977Z,20.71
2022-08-01T18:55:10.257Z,20.70
2022-08-01T18:57:42.688Z,20.69
2022-08-01T19:00:18.404Z,20.67
2022-08-01T19:02:50.084Z,20.62
2022-08-01T19:05:21.867Z,20.55
2022-08-01T19:08:06.051Z,20.49
2022-08-01T19:10:39.608Z,20.43
2022-08-01T19:13:11.787Z,20.42
2022-08-01T19:15:43.569Z,20.38
2022-08-01T19:18:15.731Z,20.35
2022-08-01T19:20:47.554Z,20.32
2022-08-01T19:23:36.979Z,20.29
2022-08-01T19:26:12.656Z,20.21
2022-08-01T19:28:48.340Z,20.16
2022-08-01T19:31:23.652Z,20.15
2022-08-01T19:33:56.504Z,20.12
2022-08-01T19:36:28.490Z,20.08
2022-08-01T19:39:01.766Z,20.07
2022-08-01T19:41:35.058Z,20.02
2022-08-01T19:44:08.312Z,19.99
2022-08-01T19:46:42.054Z,19.98
2022-08-01T19:49:16.906Z,19.96
2022-08-01T19:51:51.833Z,19.95
2022-08-01T19:54:27.013Z,19.90
2022-08-01T19:57:01.871Z,19.84
2022-08-01T19:59:35.032Z,19.79
2022-08-01T20:02:07.751Z,19.78
2022-08-01T20:04:39.501Z,19.76
2022-08-01T20:07:12.408Z,19.71
2022-08-01T20:09:46.719Z,19.63
2022-08-01T20:12:21.162Z,19.56
2022-08-01T20:14:54.823Z,19.49
2022-08-01T20:17:26.585Z,19.48
2022-08-01T20:19:58.259Z,19.46
2022-08-01T20:22:33.871Z,19.43
2022-08-01T20:25:07.267Z,19.40
2022-08-01T20:27:41.503Z,19.37
2022-08-01T20:30:14.841Z,19.34
2022-08-01T20:32:46.865Z,19.34
2022-08-01T20:35:38.946Z,19.35
2022-08-01T20:38:12.576Z,19.38
2022-08-01T20:40:49.250Z,19.37
2022-08-01T20:43:23.630Z,19.32
2022-08-01T20:45:55.504Z,19.27
2022-08-01T20:48:29.403Z,19.24
2022-08-01T20:51:17.508Z,19.24
2022-08-01T20:53:52.599Z,19.26
2022-08-01T20:56:37.209Z,19.26
2022-08-01T20:59:39.676Z,19.27
2022-08-01T21:02:19.079Z,19.24
2022-08-01T21:04:58.228Z,19.20
2022-08-01T21:07:34.179Z,19.14
2022-08-01T21:10:09.257Z,19.06
2022-08-01T21:12:47.392Z,19.00
2022-08-01T21:15:28.225Z,18.97
2022-08-01T21:18:04.738Z,18.96
2022-08-01T21:20:40.065Z,18.96
2022-08-01T21:23:22.055Z,18.98
2022-08-01T21:25:55.585Z,18.99
2022-08-01T21:28:28.619Z,18.98
2022-08-01T21:31:01.380Z,18.95
2022-08-01T21:33:34.882Z,18.86
2022-08-01T21:36:07.931Z,18.81
2022-08-01T21:38:40.270Z,18.81
2022-08-01T21:41:13.520Z,18.80
2022-08-01T21:43:49.744Z,18.80
2022-08-01T21:46:22.551Z,18.82
2022-08-01T21:48:57.231Z,18.82
2022-08-01T21:51:39.118Z,18.77
2022-08-01T21:54:23.111Z,18.70
2022-08-01T21:56:57.740Z,18.68
2022-08-01T21:59:39.055Z,18.60
2022-08-01T22:02:18.622Z,18.57
2022-08-01T22:04:53.801Z,18.53
2022-08-01T22:07:27.480Z,18.54
2022-08-01T22:10:02.936Z,18.53
2022-08-01T22:12:36.419Z,18.50
2022-08-01T22:15:12.129Z,18.50
2022-08-01T22:17:44.899Z,18.51
2022-08-01T22:20:16.505Z,18.52
2022-08-01T22:22:52.246Z,18.49
2022-08-01T22:25:24.900Z,18.52
2022-08-01T22:28:08.204Z,18.52
2022-08-01T22:30:44.259Z,18.53
2022-08-01T22:33:17.611Z,18.54
2022-08-01T22:35:52.763Z,18.56
2022-08-01T22:38:25.987Z,18.57
2022-08-01T22:41:05.250Z,18.57
2022-08-01T22:43:46.728Z,18.58
2022-08-01T22:46:26.271Z,18.61
2022-08-01T22:49:08.993Z,18.63
2022-08-01T22:51:55.589Z,18.67
2022-08-01T22:54:37.417Z,18.69
2022-08-01T22:57:16.967Z,18.71
2022-08-01T23:00:00.857Z,18.66
2022-08-01T23:02:34.478Z,18.62
2022-08-01T23:05:13.191Z,18.56
2022-08-01T23:07:54.612Z,18.55
2022-08-01T23:10:27.603Z,18.54
2022-08-01T23:13:00.971Z,18.55
2022-08-01T23:15:32.857Z,18.57
2022-08-01T23:18:05.665Z,18.55
2022-08-01T23:20:38.273Z,18.55
2022-08-01T23:23:10.383Z,18.53
2022-08-01T23:25:44.696Z,18.51
2022-08-01T23:28:17.124Z,18.45
2022-08-01T23:30:49.929Z,18.41
2022-08-01T23:33:21.613Z,18.39
2022-08-01T23:35:53.168Z,18.35
2022-08-01T23:38:24.923Z,18.32
2022-08-01T23:40:56.525Z,18.29
2022-08-01T23:43:28.278Z,18.28
2022-08-01T23:46:04.306Z,18.28
2022-08-01T23:48:38.571Z,18.28
2022-08-01T23:51:17.201Z,18.27
2022-08-01T23:53:55.870Z,18.24
2022-08-01T23:56:27.386Z,18.23
2022-08-01T23:58:59.145Z,18.22
